sensor_id;sensor_type;location;lat;lon;timestamp;temperature;humidity
14093;DHT22;7123;49.468;10.992;2022-10-22T00:02:18;15.40;99.90
14093;DHT22;7123;49.468;10.992;2022-10-22T00:04:47;15.40;99.90
14093;DHT22;7123;49.468;10.992;2022-10-22T00:07:16;15.40;99.90
14093;DHT22;7123;49.468;10.992;2022-10-22T00:09:43;15.40;99.90
14093;DHT22;7123;49.468;10.992;2022-10-22T00:12:10;15.40;99.90
14093;DHT22;7123;49.468;10.992;2022-10-22T00:14:38;15.40;99.90
14093;DHT22;7123;49.468;10.992;2022-10-22T00:17:05;15.40;99.90
14093;DHT22;7123;49.468;10.992;2022-10-22T00:19:37;15.40;99.90
14093;DHT22;7123;49.468;10.992;2022-10-22T00:22:04;15.50;99.90
14093;DHT22;7123;49.468;10.992;2022-10-22T00:24:32;15.50;99.90
14093;DHT22;7123;49.468;10.992;2022-10-22T00:26:59;15.50;99.90
14093;DHT22;7123;49.468;10.992;2022-10-22T00:29:26;15.40;99.90
14093;DHT22;7123;49.468;10.992;2022-10-22T00:31:53;15.50;99.90
14093;DHT22;7123;49.468;10.992;2022-10-22T00:34:21;15.40;99.90
14093;DHT22;7123;49.468;10.992;2022-10-22T00:36:49;15.40;99.90
14093;DHT22;7123;49.468;10.992;2022-10-22T00:39:18;15.40;99.90
14093;DHT22;7123;49.468;10.992;2022-10-22T00:41:46;15.40;99.90
14093;DHT22;7123;49.468;10.992;2022-10-22T00:47:27;15.40;99.90
14093;DHT22;7123;49.468;10.992;2022-10-22T00:49:56;15.40;99.90
14093;DHT22;7123;49.468;10.992;2022-10-22T00:52:24;15.40;99.90
14093;DHT22;7123;49.468;10.992;2022-10-22T00:54:51;15.40;99.90
14093;DHT22;7123;49.468;10.992;2022-10-22T00:57:19;15.30;99.90
14093;DHT22;7123;49.468;10.992;2022-10-22T00:59:47;15.30;99.90
14093;DHT22;7123;49.468;10.992;2022-10-22T01:02:15;15.30;99.90
14093;DHT22;7123;49.468;10.992;2022-10-22T01:04:42;15.30;99.90
14093;DHT22;7123;49.468;10.992;2022-10-22T01:07:17;15.30;99.90
14093;DHT22;7123;49.468;10.992;2022-10-22T01:20:30;15.10;99.90
14093;DHT22;7123;49.468;10.992;2022-10-22T01:29:06;14.80;99.90
14093;DHT22;7123;49.468;10.992;2022-10-22T01:31:44;14.70;99.90
14093;DHT22;7123;49.468;10.992;2022-10-22T01:34:14;14.60;99.90
14093;DHT22;7123;49.468;10.992;2022-10-22T01:36:43;14.50;99.90
14093;DHT22;7123;49.468;10.992;2022-10-22T01:39:13;14.40;99.90
14093;DHT22;7123;49.468;10.992;2022-10-22T01:41:43;14.40;99.90
14093;DHT22;7123;49.468;10.992;2022-10-22T01:44:34;14.40;99.90
14093;DHT22;7123;49.468;10.992;2022-10-22T01:52:59;14.20;99.90
14093;DHT22;7123;49.468;10.992;2022-10-22T02:07:04;14.20;99.90
14093;DHT22;7123;49.468;10.992;2022-10-22T02:09:33;14.20;99.90
14093;DHT22;7123;49.468;10.992;2022-10-22T02:12:01;14.20;99.90
14093;DHT22;7123;49.468;10.992;2022-10-22T02:14:36;14.20;99.90
14093;DHT22;7123;49.468;10.992;2022-10-22T02:17:05;14.20;99.90
14093;DHT22;7123;49.468;10.992;2022-10-22T02:19:38;14.20;99.90
14093;DHT22;7123;49.468;10.992;2022-10-22T02:22:05;14.30;99.90
14093;DHT22;7123;49.468;10.992;2022-10-22T02:24:32;14.30;99.90
14093;DHT22;7123;49.468;10.992;2022-10-22T02:29:44;14.40;99.90
14093;DHT22;7123;49.468;10.992;2022-10-22T02:32:15;14.40;99.90
14093;DHT22;7123;49.468;10.992;2022-10-22T02:34:45;14.40;99.90
14093;DHT22;7123;49.468;10.992;2022-10-22T02:37:13;14.40;99.90
14093;DHT22;7123;49.468;10.992;2022-10-22T02:39:40;14.50;99.90
14093;DHT22;7123;49.468;10.992;2022-10-22T02:42:07;14.50;99.90
14093;DHT22;7123;49.468;10.992;2022-10-22T02:44:35;14.60;99.90
14093;DHT22;7123;49.468;10.992;2022-10-22T02:47:01;14.60;99.90
14093;DHT22;7123;49.468;10.992;2022-10-22T02:49:28;14.70;99.90
14093;DHT22;7123;49.468;10.992;2022-10-22T02:51:55;14.70;99.90
14093;DHT22;7123;49.468;10.992;2022-10-22T02:54:22;14.70;99.90
14093;DHT22;7123;49.468;10.992;2022-10-22T02:56:48;14.70;99.90
14093;DHT22;7123;49.468;10.992;2022-10-22T02:59:15;14.60;99.90
14093;DHT22;7123;49.468;10.992;2022-10-22T03:01:41;14.70;99.90
14093;DHT22;7123;49.468;10.992;2022-10-22T03:04:08;14.70;99.90
14093;DHT22;7123;49.468;10.992;2022-10-22T03:06:35;14.70;99.90
14093;DHT22;7123;49.468;10.992;2022-10-22T03:09:01;14.80;99.90
14093;DHT22;7123;49.468;10.992;2022-10-22T03:11:28;14.80;99.90
14093;DHT22;7123;49.468;10.992;2022-10-22T03:13:55;14.80;99.90
14093;DHT22;7123;49.468;10.992;2022-10-22T03:16:21;14.90;99.90
14093;DHT22;7123;49.468;10.992;2022-10-22T03:18:48;14.90;99.90
14093;DHT22;7123;49.468;10.992;2022-10-22T03:21:31;14.90;99.90
14093;DHT22;7123;49.468;10.992;2022-10-22T03:24:03;14.90;99.90
14093;DHT22;7123;49.468;10.992;2022-10-22T03:26:32;15.00;99.90
14093;DHT22;7123;49.468;10.992;2022-10-22T03:28:59;15.00;99.90
14093;DHT22;7123;49.468;10.992;2022-10-22T03:31:26;15.00;99.90
14093;DHT22;7123;49.468;10.992;2022-10-22T03:33:52;15.00;99.90
14093;DHT22;7123;49.468;10.992;2022-10-22T03:36:19;15.00;99.90
14093;DHT22;7123;49.468;10.992;2022-10-22T03:38:46;15.00;99.90
14093;DHT22;7123;49.468;10.992;2022-10-22T03:41:13;15.10;99.90
14093;DHT22;7123;49.468;10.992;2022-10-22T03:43:39;15.10;99.90
14093;DHT22;7123;49.468;10.992;2022-10-22T03:46:06;15.10;99.90
14093;DHT22;7123;49.468;10.992;2022-10-22T03:48:33;15.00;99.90
14093;DHT22;7123;49.468;10.992;2022-10-22T03:50:59;15.00;99.90
14093;DHT22;7123;49.468;10.992;2022-10-22T03:53:26;15.00;99.90
14093;DHT22;7123;49.468;10.992;2022-10-22T03:55:53;14.90;99.90
14093;DHT22;7123;49.468;10.992;2022-10-22T03:58:19;14.90;99.90
14093;DHT22;7123;49.468;10.992;2022-10-22T04:00:46;14.70;99.90
14093;DHT22;7123;49.468;10.992;2022-10-22T04:03:13;14.60;99.90
14093;DHT22;7123;49.468;10.992;2022-10-22T04:05:39;14.70;99.90
14093;DHT22;7123;49.468;10.992;2022-10-22T04:08:06;14.40;99.90
14093;DHT22;7123;49.468;10.992;2022-10-22T04:10:32;14.30;99.90
14093;DHT22;7123;49.468;10.992;2022-10-22T04:12:59;14.30;99.90
14093;DHT22;7123;49.468;10.992;2022-10-22T04:15:26;14.20;99.90
14093;DHT22;7123;49.468;10.992;2022-10-22T04:17:54;14.10;99.90
14093;DHT22;7123;49.468;10.992;2022-10-22T04:20:21;14.20;99.90
14093;DHT22;7123;49.468;10.992;2022-10-22T04:22:47;14.20;99.90
14093;DHT22;7123;49.468;10.992;2022-10-22T04:25:14;14.20;99.90
14093;DHT22;7123;49.468;10.992;2022-10-22T04:27:41;14.30;99.90
14093;DHT22;7123;49.468;10.992;2022-10-22T04:30:08;14.50;99.90
14093;DHT22;7123;49.468;10.992;2022-10-22T04:32:35;14.30;99.90
14093;DHT22;7123;49.468;10.992;2022-10-22T04:35:02;14.30;99.90
14093;DHT22;7123;49.468;10.992;2022-10-22T04:37:29;14.30;99.90
14093;DHT22;7123;49.468;10.992;2022-10-22T04:39:55;14.40;99.90
14093;DHT22;7123;49.468;10.992;2022-10-22T04:42:24;14.50;99.90
14093;DHT22;7123;49.468;10.992;2022-10-22T04:44:50;14.60;99.90
14093;DHT22;7123;49.468;10.992;2022-10-22T04:47:17;14.60;99.90
14093;DHT22;7123;49.468;10.992;2022-10-22T04:49:43;14.70;99.90
14093;DHT22;7123;49.468;10.992;2022-10-22T04:52:10;14.70;99.90
14093;DHT22;7123;49.468;10.992;2022-10-22T04:54:37;14.70;99.90
14093;DHT22;7123;49.468;10.992;2022-10-22T04:57:04;14.70;99.90
14093;DHT22;7123;49.468;10.992;2022-10-22T04:59:31;14.70;99.90
14093;DHT22;7123;49.468;10.992;2022-10-22T05:01:58;14.70;99.90
14093;DHT22;7123;49.468;10.992;2022-10-22T05:04:24;14.70;99.90
14093;DHT22;7123;49.468;10.992;2022-10-22T05:06:51;14.70;99.90
14093;DHT22;7123;49.468;10.992;2022-10-22T05:09:19;14.70;99.90
14093;DHT22;7123;49.468;10.992;2022-10-22T05:11:48;14.80;99.90
14093;DHT22;7123;49.468;10.992;2022-10-22T05:14:17;14.80;99.90
14093;DHT22;7123;49.468;10.992;2022-10-22T05:16:44;14.80;99.90
14093;DHT22;7123;49.468;10.992;2022-10-22T05:19:20;14.90;99.90
14093;DHT22;7123;49.468;10.992;2022-10-22T05:21:50;14.90;99.90
14093;DHT22;7123;49.468;10.992;2022-10-22T05:24:17;14.90;99.90
14093;DHT22;7123;49.468;10.992;2022-10-22T05:26:44;14.90;99.90
14093;DHT22;7123;49.468;10.992;2022-10-22T05:29:11;14.90;99.90
14093;DHT22;7123;49.468;10.992;2022-10-22T05:31:38;14.90;99.90
14093;DHT22;7123;49.468;10.992;2022-10-22T05:34:05;14.90;99.90
14093;DHT22;7123;49.468;10.992;2022-10-22T05:36:32;14.90;99.90
14093;DHT22;7123;49.468;10.992;2022-10-22T05:38:58;14.90;99.90
14093;DHT22;7123;49.468;10.992;2022-10-22T05:41:27;14.90;99.90
14093;DHT22;7123;49.468;10.992;2022-10-22T05:43:58;14.90;99.90
14093;DHT22;7123;49.468;10.992;2022-10-22T05:46:27;14.90;99.90
14093;DHT22;7123;49.468;10.992;2022-10-22T05:49:03;14.90;99.90
14093;DHT22;7123;49.468;10.992;2022-10-22T05:51:32;14.90;99.90
14093;DHT22;7123;49.468;10.992;2022-10-22T05:54:01;14.90;99.90
14093;DHT22;7123;49.468;10.992;2022-10-22T05:56:30;14.90;99.90
14093;DHT22;7123;49.468;10.992;2022-10-22T05:59:00;14.90;99.90
14093;DHT22;7123;49.468;10.992;2022-10-22T06:01:33;14.80;99.90
14093;DHT22;7123;49.468;10.992;2022-10-22T06:04:03;14.80;99.90
14093;DHT22;7123;49.468;10.992;2022-10-22T06:09:11;14.80;99.90
14093;DHT22;7123;49.468;10.992;2022-10-22T06:11:39;14.80;99.90
14093;DHT22;7123;49.468;10.992;2022-10-22T06:14:06;14.80;99.90
14093;DHT22;7123;49.468;10.992;2022-10-22T06:16:32;14.80;99.90
14093;DHT22;7123;49.468;10.992;2022-10-22T06:18:59;14.80;99.90
14093;DHT22;7123;49.468;10.992;2022-10-22T06:21:30;14.70;99.90
14093;DHT22;7123;49.468;10.992;2022-10-22T06:23:59;14.60;99.90
14093;DHT22;7123;49.468;10.992;2022-10-22T06:26:26;14.60;99.90
14093;DHT22;7123;49.468;10.992;2022-10-22T06:28:53;14.60;99.90
14093;DHT22;7123;49.468;10.992;2022-10-22T06:31:21;14.70;99.90
14093;DHT22;7123;49.468;10.992;2022-10-22T06:33:48;14.70;99.90
14093;DHT22;7123;49.468;10.992;2022-10-22T06:36:17;14.80;99.90
14093;DHT22;7123;49.468;10.992;2022-10-22T06:38:44;14.80;99.90
14093;DHT22;7123;49.468;10.992;2022-10-22T06:41:15;14.90;99.90
14093;DHT22;7123;49.468;10.992;2022-10-22T06:43:43;14.90;99.90
14093;DHT22;7123;49.468;10.992;2022-10-22T06:46:11;14.90;99.90
14093;DHT22;7123;49.468;10.992;2022-10-22T06:48:46;14.90;99.90
14093;DHT22;7123;49.468;10.992;2022-10-22T06:51:13;14.90;99.90
14093;DHT22;7123;49.468;10.992;2022-10-22T06:53:40;14.90;99.90
14093;DHT22;7123;49.468;10.992;2022-10-22T06:56:12;14.90;99.90
14093;DHT22;7123;49.468;10.992;2022-10-22T06:58:39;14.90;99.90
14093;DHT22;7123;49.468;10.992;2022-10-22T07:01:11;14.90;99.90
14093;DHT22;7123;49.468;10.992;2022-10-22T07:03:39;14.90;99.90
14093;DHT22;7123;49.468;10.992;2022-10-22T07:06:08;14.90;99.90
14093;DHT22;7123;49.468;10.992;2022-10-22T07:08:37;14.90;99.90
14093;DHT22;7123;49.468;10.992;2022-10-22T07:11:16;14.80;99.90
14093;DHT22;7123;49.468;10.992;2022-10-22T07:13:44;14.70;99.90
14093;DHT22;7123;49.468;10.992;2022-10-22T07:16:12;14.50;99.90
14093;DHT22;7123;49.468;10.992;2022-10-22T07:18:40;14.50;99.90
14093;DHT22;7123;49.468;10.992;2022-10-22T07:21:08;14.30;99.90
14093;DHT22;7123;49.468;10.992;2022-10-22T07:23:35;14.40;99.90
14093;DHT22;7123;49.468;10.992;2022-10-22T07:26:03;14.30;99.90
14093;DHT22;7123;49.468;10.992;2022-10-22T07:28:36;14.40;99.90
14093;DHT22;7123;49.468;10.992;2022-10-22T07:31:09;14.40;99.90
14093;DHT22;7123;49.468;10.992;2022-10-22T07:33:36;14.40;99.90
14093;DHT22;7123;49.468;10.992;2022-10-22T07:36:06;14.40;99.90
14093;DHT22;7123;49.468;10.992;2022-10-22T07:38:33;14.40;99.90
14093;DHT22;7123;49.468;10.992;2022-10-22T07:41:00;14.40;99.90
14093;DHT22;7123;49.468;10.992;2022-10-22T07:43:28;14.50;99.90
14093;DHT22;7123;49.468;10.992;2022-10-22T07:45:54;14.50;99.90
14093;DHT22;7123;49.468;10.992;2022-10-22T07:48:22;14.60;99.90
14093;DHT22;7123;49.468;10.992;2022-10-22T07:50:49;14.60;99.90
14093;DHT22;7123;49.468;10.992;2022-10-22T07:53:17;14.60;99.90
14093;DHT22;7123;49.468;10.992;2022-10-22T07:55:47;14.60;99.90
14093;DHT22;7123;49.468;10.992;2022-10-22T07:58:14;14.70;99.90
14093;DHT22;7123;49.468;10.992;2022-10-22T08:00:41;14.70;99.90
14093;DHT22;7123;49.468;10.992;2022-10-22T08:03:10;14.80;99.90
14093;DHT22;7123;49.468;10.992;2022-10-22T08:05:37;14.70;99.90
14093;DHT22;7123;49.468;10.992;2022-10-22T08:08:05;14.70;99.90
14093;DHT22;7123;49.468;10.992;2022-10-22T08:10:32;14.80;99.90
14093;DHT22;7123;49.468;10.992;2022-10-22T08:13:00;14.70;99.90
14093;DHT22;7123;49.468;10.992;2022-10-22T08:15:27;14.70;99.90
14093;DHT22;7123;49.468;10.992;2022-10-22T08:17:53;14.70;99.90
14093;DHT22;7123;49.468;10.992;2022-10-22T08:20:20;14.70;99.90
14093;DHT22;7123;49.468;10.992;2022-10-22T08:22:47;14.70;99.90
14093;DHT22;7123;49.468;10.992;2022-10-22T08:25:14;14.70;99.90
14093;DHT22;7123;49.468;10.992;2022-10-22T08:27:41;14.80;99.90
14093;DHT22;7123;49.468;10.992;2022-10-22T08:30:09;14.80;99.90
14093;DHT22;7123;49.468;10.992;2022-10-22T08:32:36;14.90;99.90
14093;DHT22;7123;49.468;10.992;2022-10-22T08:35:03;14.90;99.90
14093;DHT22;7123;49.468;10.992;2022-10-22T08:37:30;14.90;99.90
14093;DHT22;7123;49.468;10.992;2022-10-22T08:39:57;14.90;99.90
14093;DHT22;7123;49.468;10.992;2022-10-22T08:42:43;15.00;99.90
14093;DHT22;7123;49.468;10.992;2022-10-22T08:50:49;15.20;99.90
14093;DHT22;7123;49.468;10.992;2022-10-22T08:53:24;15.30;99.90
14093;DHT22;7123;49.468;10.992;2022-10-22T08:55:53;15.30;99.90
14093;DHT22;7123;49.468;10.992;2022-10-22T09:01:05;15.40;99.90
14093;DHT22;7123;49.468;10.992;2022-10-22T09:03:56;15.40;99.90
14093;DHT22;7123;49.468;10.992;2022-10-22T09:06:27;15.50;99.90
14093;DHT22;7123;49.468;10.992;2022-10-22T09:08:56;15.50;99.90
14093;DHT22;7123;49.468;10.992;2022-10-22T09:11:28;15.60;99.90
14093;DHT22;7123;49.468;10.992;2022-10-22T09:13:56;15.60;99.90
14093;DHT22;7123;49.468;10.992;2022-10-22T09:16:25;15.60;99.90
14093;DHT22;7123;49.468;10.992;2022-10-22T09:24:45;15.80;99.90
14093;DHT22;7123;49.468;10.992;2022-10-22T09:27:16;15.90;99.90
14093;DHT22;7123;49.468;10.992;2022-10-22T09:29:44;15.90;99.90
14093;DHT22;7123;49.468;10.992;2022-10-22T09:32:12;16.00;99.90
14093;DHT22;7123;49.468;10.992;2022-10-22T09:34:39;16.00;99.90
14093;DHT22;7123;49.468;10.992;2022-10-22T09:37:08;16.00;99.90
14093;DHT22;7123;49.468;10.992;2022-10-22T09:39:40;16.10;99.90
14093;DHT22;7123;49.468;10.992;2022-10-22T09:42:10;16.20;99.90
14093;DHT22;7123;49.468;10.992;2022-10-22T09:44:39;16.20;99.90
14093;DHT22;7123;49.468;10.992;2022-10-22T09:47:37;16.20;99.90
14093;DHT22;7123;49.468;10.992;2022-10-22T09:50:40;16.20;99.90
14093;DHT22;7123;49.468;10.992;2022-10-22T09:53:20;16.20;99.90
14093;DHT22;7123;49.468;10.992;2022-10-22T09:55:53;16.20;99.90
14093;DHT22;7123;49.468;10.992;2022-10-22T09:58:21;16.20;99.90
14093;DHT22;7123;49.468;10.992;2022-10-22T10:00:57;16.20;99.90
14093;DHT22;7123;49.468;10.992;2022-10-22T10:03:27;16.20;99.90
14093;DHT22;7123;49.468;10.992;2022-10-22T10:05:57;16.30;99.90
14093;DHT22;7123;49.468;10.992;2022-10-22T10:08:31;16.20;99.90
14093;DHT22;7123;49.468;10.992;2022-10-22T10:11:35;16.30;99.90
14093;DHT22;7123;49.468;10.992;2022-10-22T10:17:04;16.30;99.90
14093;DHT22;7123;49.468;10.992;2022-10-22T10:19:48;16.40;99.90
14093;DHT22;7123;49.468;10.992;2022-10-22T10:25:40;16.40;99.90
14093;DHT22;7123;49.468;10.992;2022-10-22T10:39:24;16.70;99.90
14093;DHT22;7123;49.468;10.992;2022-10-22T10:44:42;16.70;99.90
14093;DHT22;7123;49.468;10.992;2022-10-22T10:47:32;16.80;99.90
14093;DHT22;7123;49.468;10.992;2022-10-22T10:50:33;16.80;99.90
14093;DHT22;7123;49.468;10.992;2022-10-22T10:53:16;16.80;99.90
14093;DHT22;7123;49.468;10.992;2022-10-22T10:58:50;16.90;99.90
14093;DHT22;7123;49.468;10.992;2022-10-22T11:01:32;16.90;99.90
14093;DHT22;7123;49.468;10.992;2022-10-22T11:07:00;16.90;99.90
14093;DHT22;7123;49.468;10.992;2022-10-22T11:09:43;16.90;99.90
14093;DHT22;7123;49.468;10.992;2022-10-22T11:12:25;16.90;99.90
14093;DHT22;7123;49.468;10.992;2022-10-22T11:15:11;16.90;99.90
14093;DHT22;7123;49.468;10.992;2022-10-22T11:17:44;16.90;99.90
14093;DHT22;7123;49.468;10.992;2022-10-22T11:20:23;16.90;99.90
14093;DHT22;7123;49.468;10.992;2022-10-22T11:23:05;16.90;99.90
14093;DHT22;7123;49.468;10.992;2022-10-22T11:25:47;16.90;99.90
14093;DHT22;7123;49.468;10.992;2022-10-22T11:30:51;17.00;99.90
14093;DHT22;7123;49.468;10.992;2022-10-22T11:33:23;17.10;99.90
14093;DHT22;7123;49.468;10.992;2022-10-22T11:35:52;17.10;99.90
14093;DHT22;7123;49.468;10.992;2022-10-22T11:38:24;17.10;99.90
14093;DHT22;7123;49.468;10.992;2022-10-22T11:40:57;17.20;99.90
14093;DHT22;7123;49.468;10.992;2022-10-22T11:46:24;17.20;99.90
14093;DHT22;7123;49.468;10.992;2022-10-22T11:51:37;17.30;99.90
14093;DHT22;7123;49.468;10.992;2022-10-22T11:54:30;17.30;99.90
14093;DHT22;7123;49.468;10.992;2022-10-22T12:05:38;17.30;99.90
14093;DHT22;7123;49.468;10.992;2022-10-22T12:11:04;17.50;99.90
14093;DHT22;7123;49.468;10.992;2022-10-22T12:13:50;17.50;99.90
14093;DHT22;7123;49.468;10.992;2022-10-22T12:16:21;17.60;99.90
14093;DHT22;7123;49.468;10.992;2022-10-22T12:21:38;17.80;99.90
14093;DHT22;7123;49.468;10.992;2022-10-22T12:24:08;17.80;99.90
14093;DHT22;7123;49.468;10.992;2022-10-22T12:26:37;17.80;99.90
14093;DHT22;7123;49.468;10.992;2022-10-22T12:29:09;17.80;99.90
14093;DHT22;7123;49.468;10.992;2022-10-22T12:31:38;17.80;99.90
14093;DHT22;7123;49.468;10.992;2022-10-22T12:34:06;17.80;99.90
14093;DHT22;7123;49.468;10.992;2022-10-22T12:36:34;17.80;99.90
14093;DHT22;7123;49.468;10.992;2022-10-22T12:39:07;17.80;99.90
14093;DHT22;7123;49.468;10.992;2022-10-22T12:41:36;17.80;99.90
14093;DHT22;7123;49.468;10.992;2022-10-22T12:44:04;17.80;99.90
14093;DHT22;7123;49.468;10.992;2022-10-22T12:46:33;17.80;99.90
14093;DHT22;7123;49.468;10.992;2022-10-22T12:49:03;17.80;99.90
14093;DHT22;7123;49.468;10.992;2022-10-22T12:51:31;17.80;99.90
14093;DHT22;7123;49.468;10.992;2022-10-22T12:54:08;17.80;99.90
14093;DHT22;7123;49.468;10.992;2022-10-22T12:56:36;17.90;99.90
14093;DHT22;7123;49.468;10.992;2022-10-22T12:59:11;18.00;99.90
14093;DHT22;7123;49.468;10.992;2022-10-22T13:01:41;18.20;99.90
14093;DHT22;7123;49.468;10.992;2022-10-22T13:06:44;18.30;99.90
14093;DHT22;7123;49.468;10.992;2022-10-22T13:09:17;18.40;99.90
14093;DHT22;7123;49.468;10.992;2022-10-22T13:11:55;18.40;99.90
14093;DHT22;7123;49.468;10.992;2022-10-22T13:14:32;18.50;99.90
14093;DHT22;7123;49.468;10.992;2022-10-22T13:17:15;18.50;99.90
14093;DHT22;7123;49.468;10.992;2022-10-22T13:22:57;18.80;99.90
14093;DHT22;7123;49.468;10.992;2022-10-22T13:27:56;19.00;99.90
14093;DHT22;7123;49.468;10.992;2022-10-22T13:30:29;19.00;99.90
14093;DHT22;7123;49.468;10.992;2022-10-22T13:33:23;19.20;99.90
14093;DHT22;7123;49.468;10.992;2022-10-22T13:35:53;19.10;99.90
14093;DHT22;7123;49.468;10.992;2022-10-22T13:38:22;19.10;99.90
14093;DHT22;7123;49.468;10.992;2022-10-22T13:40:50;19.00;99.90
14093;DHT22;7123;49.468;10.992;2022-10-22T13:43:17;19.00;99.90
14093;DHT22;7123;49.468;10.992;2022-10-22T13:45:49;19.10;99.90
14093;DHT22;7123;49.468;10.992;2022-10-22T13:48:19;19.20;99.90
14093;DHT22;7123;49.468;10.992;2022-10-22T13:50:48;19.10;99.90
14093;DHT22;7123;49.468;10.992;2022-10-22T13:53:19;19.20;99.90
14093;DHT22;7123;49.468;10.992;2022-10-22T13:55:46;19.30;99.90
14093;DHT22;7123;49.468;10.992;2022-10-22T13:58:18;19.40;99.90
14093;DHT22;7123;49.468;10.992;2022-10-22T14:00:48;19.60;99.90
14093;DHT22;7123;49.468;10.992;2022-10-22T14:03:17;19.60;99.90
14093;DHT22;7123;49.468;10.992;2022-10-22T14:05:46;19.70;99.90
14093;DHT22;7123;49.468;10.992;2022-10-22T14:08:18;19.80;99.90
14093;DHT22;7123;49.468;10.992;2022-10-22T14:10:46;19.80;99.90
14093;DHT22;7123;49.468;10.992;2022-10-22T14:13:16;19.90;99.90
14093;DHT22;7123;49.468;10.992;2022-10-22T14:15:44;20.00;99.90
14093;DHT22;7123;49.468;10.992;2022-10-22T14:18:15;20.20;99.90
14093;DHT22;7123;49.468;10.992;2022-10-22T14:20:42;20.30;99.90
14093;DHT22;7123;49.468;10.992;2022-10-22T14:23:14;20.30;99.90
14093;DHT22;7123;49.468;10.992;2022-10-22T14:25:44;20.30;99.90
14093;DHT22;7123;49.468;10.992;2022-10-22T14:28:12;20.30;99.90
14093;DHT22;7123;49.468;10.992;2022-10-22T14:30:40;20.20;99.90
14093;DHT22;7123;49.468;10.992;2022-10-22T14:33:29;20.20;99.90
14093;DHT22;7123;49.468;10.992;2022-10-22T14:35:59;20.10;99.90
14093;DHT22;7123;49.468;10.992;2022-10-22T14:38:26;20.10;99.90
14093;DHT22;7123;49.468;10.992;2022-10-22T14:40:52;20.20;99.90
14093;DHT22;7123;49.468;10.992;2022-10-22T14:43:22;20.40;99.90
14093;DHT22;7123;49.468;10.992;2022-10-22T14:45:49;20.70;99.90
14093;DHT22;7123;49.468;10.992;2022-10-22T14:48:16;20.70;99.90
14093;DHT22;7123;49.468;10.992;2022-10-22T14:50:48;20.80;99.90
14093;DHT22;7123;49.468;10.992;2022-10-22T14:53:15;20.70;99.90
14093;DHT22;7123;49.468;10.992;2022-10-22T14:55:45;20.60;99.90
14093;DHT22;7123;49.468;10.992;2022-10-22T14:58:13;20.60;99.90
14093;DHT22;7123;49.468;10.992;2022-10-22T15:00:41;20.50;99.90
14093;DHT22;7123;49.468;10.992;2022-10-22T15:03:09;20.40;99.90
14093;DHT22;7123;49.468;10.992;2022-10-22T15:05:39;20.40;99.90
14093;DHT22;7123;49.468;10.992;2022-10-22T15:08:10;20.20;99.90
14093;DHT22;7123;49.468;10.992;2022-10-22T15:10:37;20.00;99.90
14093;DHT22;7123;49.468;10.992;2022-10-22T15:13:03;20.00;99.90
14093;DHT22;7123;49.468;10.992;2022-10-22T15:15:30;20.20;99.90
14093;DHT22;7123;49.468;10.992;2022-10-22T15:18:04;20.40;99.90
14093;DHT22;7123;49.468;10.992;2022-10-22T15:20:31;20.60;99.90
14093;DHT22;7123;49.468;10.992;2022-10-22T15:22:58;20.70;99.90
14093;DHT22;7123;49.468;10.992;2022-10-22T15:25:24;20.80;99.90
14093;DHT22;7123;49.468;10.992;2022-10-22T15:27:51;20.80;99.90
14093;DHT22;7123;49.468;10.992;2022-10-22T15:30:25;20.80;99.90
14093;DHT22;7123;49.468;10.992;2022-10-22T15:32:51;20.80;99.90
14093;DHT22;7123;49.468;10.992;2022-10-22T15:35:18;20.80;99.90
14093;DHT22;7123;49.468;10.992;2022-10-22T15:37:44;20.70;99.90
14093;DHT22;7123;49.468;10.992;2022-10-22T15:40:11;20.40;99.90
14093;DHT22;7123;49.468;10.992;2022-10-22T15:42:38;20.20;99.90
14093;DHT22;7123;49.468;10.992;2022-10-22T15:45:05;20.00;99.90
14093;DHT22;7123;49.468;10.992;2022-10-22T15:47:32;20.00;99.90
14093;DHT22;7123;49.468;10.992;2022-10-22T15:49:59;20.00;99.90
14093;DHT22;7123;49.468;10.992;2022-10-22T15:52:26;19.90;99.90
14093;DHT22;7123;49.468;10.992;2022-10-22T15:54:52;19.90;99.90
14093;DHT22;7123;49.468;10.992;2022-10-22T15:57:19;19.90;99.90
14093;DHT22;7123;49.468;10.992;2022-10-22T15:59:46;19.90;99.90
14093;DHT22;7123;49.468;10.992;2022-10-22T16:02:12;19.80;99.90
14093;DHT22;7123;49.468;10.992;2022-10-22T16:04:40;19.70;99.90
14093;DHT22;7123;49.468;10.992;2022-10-22T16:07:07;19.60;99.90
14093;DHT22;7123;49.468;10.992;2022-10-22T16:09:34;19.40;99.90
14093;DHT22;7123;49.468;10.992;2022-10-22T16:12:00;19.30;99.90
14093;DHT22;7123;49.468;10.992;2022-10-22T16:14:27;19.30;99.90
14093;DHT22;7123;49.468;10.992;2022-10-22T16:16:55;19.20;99.90
14093;DHT22;7123;49.468;10.992;2022-10-22T16:19:23;19.10;99.90
14093;DHT22;7123;49.468;10.992;2022-10-22T16:21:51;19.10;99.90
14093;DHT22;7123;49.468;10.992;2022-10-22T16:24:19;19.00;99.90
14093;DHT22;7123;49.468;10.992;2022-10-22T16:26:46;18.90;99.90
14093;DHT22;7123;49.468;10.992;2022-10-22T16:29:14;18.80;99.90
14093;DHT22;7123;49.468;10.992;2022-10-22T16:31:41;18.80;99.90
14093;DHT22;7123;49.468;10.992;2022-10-22T16:34:09;18.70;99.90
14093;DHT22;7123;49.468;10.992;2022-10-22T16:36:36;18.60;99.90
14093;DHT22;7123;49.468;10.992;2022-10-22T16:39:04;18.60;99.90
14093;DHT22;7123;49.468;10.992;2022-10-22T16:41:34;18.60;99.90
14093;DHT22;7123;49.468;10.992;2022-10-22T16:44:04;18.70;99.90
14093;DHT22;7123;49.468;10.992;2022-10-22T16:46:32;18.70;99.90
14093;DHT22;7123;49.468;10.992;2022-10-22T16:48:59;18.80;99.90
14093;DHT22;7123;49.468;10.992;2022-10-22T16:51:26;18.80;99.90
14093;DHT22;7123;49.468;10.992;2022-10-22T16:53:54;18.80;99.90
14093;DHT22;7123;49.468;10.992;2022-10-22T16:56:22;18.80;99.90
14093;DHT22;7123;49.468;10.992;2022-10-22T16:58:50;18.80;99.90
14093;DHT22;7123;49.468;10.992;2022-10-22T17:01:19;18.80;99.90
14093;DHT22;7123;49.468;10.992;2022-10-22T17:03:46;18.80;99.90
14093;DHT22;7123;49.468;10.992;2022-10-22T17:06:13;18.80;99.90
14093;DHT22;7123;49.468;10.992;2022-10-22T17:08:41;18.80;99.90
14093;DHT22;7123;49.468;10.992;2022-10-22T17:11:10;18.80;99.90
14093;DHT22;7123;49.468;10.992;2022-10-22T17:13:39;18.80;99.90
14093;DHT22;7123;49.468;10.992;2022-10-22T17:16:09;18.70;99.90
14093;DHT22;7123;49.468;10.992;2022-10-22T17:18:37;18.70;99.90
14093;DHT22;7123;49.468;10.992;2022-10-22T17:21:05;18.60;99.90
14093;DHT22;7123;49.468;10.992;2022-10-22T17:23:31;18.60;99.90
14093;DHT22;7123;49.468;10.992;2022-10-22T17:26:03;18.50;99.90
14093;DHT22;7123;49.468;10.992;2022-10-22T17:28:32;18.50;99.90
14093;DHT22;7123;49.468;10.992;2022-10-22T17:33:29;18.30;99.90
14093;DHT22;7123;49.468;10.992;2022-10-22T17:35:57;18.30;99.90
14093;DHT22;7123;49.468;10.992;2022-10-22T17:38:23;18.20;99.90
14093;DHT22;7123;49.468;10.992;2022-10-22T17:40:50;18.20;99.90
14093;DHT22;7123;49.468;10.992;2022-10-22T17:43:17;18.20;99.90